Time;durP1;ratioP1;P1;durP2;ratioP2;P2;SDS_P1;SDS_P2;PMS_P1;PMS_P2;Temp;Humidity;BMP_temperature;BMP_pressure;BME280_temperature;BME280_humidity;BME280_pressure;Samples;Min_cycle;Max_cycle;Signal;HPM_P1;HPM_P2
2024/01/19 00:00:43;;;;;;;1999.90;999.90;;;0.20;99.90;;;;;;5031647;28;20104;-78
2024/01/19 00:03:09;;;;;;;1999.90;999.90;;;0.10;99.90;;;;;;5039507;28;20041;-79
2024/01/19 00:05:35;;;;;;;1999.90;999.90;;;0.10;99.90;;;;;;5031811;28;20049;-78
2024/01/19 00:08:00;;;;;;;1999.90;999.90;;;0.00;99.90;;;;;;5015242;28;20106;-78
2024/01/19 00:10:26;;;;;;;1999.90;999.90;;;-0.10;99.90;;;;;;5014811;28;20120;-78
2024/01/19 00:12:51;;;;;;;1999.90;999.90;;;-0.10;99.90;;;;;;5014597;28;20045;-78
2024/01/19 00:15:17;;;;;;;1999.90;999.90;;;-0.20;99.90;;;;;;5031118;28;20540;-78
2024/01/19 00:17:43;;;;;;;1999.90;999.90;;;-0.20;99.90;;;;;;5016756;28;20034;-78
2024/01/19 00:20:10;;;;;;;1999.90;999.90;;;-0.20;99.90;;;;;;5031495;28;20045;-77
2024/01/19 00:22:36;;;;;;;1999.90;999.90;;;-0.30;99.90;;;;;;5014870;28;20594;-77
2024/01/19 00:25:02;;;;;;;1999.90;999.90;;;-0.30;99.90;;;;;;5014815;28;20042;-78
2024/01/19 00:27:29;;;;;;;1999.90;999.90;;;-0.30;99.90;;;;;;5014218;28;20045;-78
2024/01/19 00:29:55;;;;;;;1999.90;999.90;;;-0.30;99.90;;;;;;5036827;28;20052;-78
2024/01/19 00:32:21;;;;;;;1999.90;999.90;;;0.00;99.90;;;;;;5031078;28;20532;-78
2024/01/19 00:34:46;;;;;;;1999.90;999.90;;;-0.20;99.90;;;;;;5031181;28;20042;-78
2024/01/19 00:37:14;;;;;;;1999.90;999.90;;;-0.10;99.90;;;;;;5030881;28;20052;-78
2024/01/19 00:39:40;;;;;;;1999.90;999.90;;;0.00;99.90;;;;;;5014420;28;20073;-78
2024/01/19 00:42:06;;;;;;;1999.90;999.90;;;1.00;99.90;;;;;;5030808;28;20181;-78
2024/01/19 00:44:31;;;;;;;1999.90;999.90;;;0.20;99.90;;;;;;5014417;28;20042;-78
2024/01/19 00:46:57;;;;;;;1999.90;999.90;;;0.20;99.90;;;;;;5030427;28;20093;-78
2024/01/19 00:49:23;;;;;;;1999.90;999.90;;;0.40;99.90;;;;;;5014271;28;20041;-78
2024/01/19 00:51:48;;;;;;;1999.90;999.90;;;0.40;99.90;;;;;;5030896;28;20124;-77
2024/01/19 00:54:14;;;;;;;1999.90;999.90;;;0.50;99.90;;;;;;5030611;28;20041;-78
2024/01/19 00:56:40;;;;;;;1999.90;999.90;;;0.50;99.90;;;;;;5030447;28;20040;-78
2024/01/19 00:59:05;;;;;;;1999.90;999.90;;;0.50;99.90;;;;;;5013888;28;20045;-78
2024/01/19 01:01:31;;;;;;;1999.90;999.90;;;0.80;99.90;;;;;;5026726;28;20045;-78
2024/01/19 01:03:58;;;;;;;1999.90;999.90;;;0.60;99.90;;;;;;5031091;28;20067;-78
2024/01/19 01:06:24;;;;;;;1999.90;999.90;;;0.60;99.90;;;;;;5014762;28;20589;-78
2024/01/19 01:08:50;;;;;;;1999.90;999.90;;;0.60;99.90;;;;;;5030536;28;20041;-78
2024/01/19 01:11:16;;;;;;;1999.90;999.90;;;0.60;99.90;;;;;;5014103;28;20560;-78
2024/01/19 01:13:41;;;;;;;1999.90;999.90;;;0.60;99.90;;;;;;5014546;28;20098;-77
2024/01/19 01:16:07;;;;;;;1999.90;999.90;;;0.60;99.90;;;;;;5014101;28;20123;-77
2024/01/19 01:18:34;;;;;;;1999.90;999.90;;;0.60;99.90;;;;;;5014297;28;20041;-78
2024/01/19 01:21:00;;;;;;;1999.90;999.90;;;0.50;99.90;;;;;;5030622;28;20513;-78
2024/01/19 01:23:25;;;;;;;1999.90;999.90;;;0.50;99.90;;;;;;5014538;28;20076;-77
2024/01/19 01:25:51;;;;;;;1999.90;999.90;;;0.50;99.90;;;;;;5030476;28;20339;-79
2024/01/19 01:28:16;;;;;;;1999.90;999.90;;;0.40;99.90;;;;;;5030933;28;20430;-78
2024/01/19 01:30:42;;;;;;;1999.90;999.90;;;0.30;99.90;;;;;;5033510;28;20057;-78
2024/01/19 01:33:08;;;;;;;1999.90;999.90;;;0.20;99.90;;;;;;5014253;28;20050;-78
2024/01/19 01:35:35;;;;;;;1999.90;999.90;;;0.10;99.90;;;;;;5013997;28;20409;-78
2024/01/19 01:38:02;;;;;;;1999.90;999.90;;;0.00;99.90;;;;;;5031075;28;20041;-78
2024/01/19 01:40:28;;;;;;;1999.90;999.90;;;-0.10;99.90;;;;;;5030380;28;20537;-78
2024/01/19 01:42:58;;;;;;;1999.90;999.90;;;-0.20;99.90;;;;;;5031251;28;20033;-78
2024/01/19 01:45:24;;;;;;;1999.90;999.90;;;0.30;99.90;;;;;;5016413;28;20030;-77
2024/01/19 01:47:50;;;;;;;1999.90;999.90;;;-0.40;99.90;;;;;;5009977;28;20103;-78
2024/01/19 01:50:15;;;;;;;1999.90;999.90;;;-0.40;99.90;;;;;;5030742;28;20045;-78
2024/01/19 01:52:41;;;;;;;1999.90;999.90;;;-0.50;99.90;;;;;;5031469;28;20037;-77
2024/01/19 01:55:07;;;;;;;1999.90;999.90;;;-0.50;99.90;;;;;;5030613;28;20064;-77
2024/01/19 01:57:33;;;;;;;1999.90;999.90;;;-0.50;99.90;;;;;;5030476;28;20029;-78
2024/01/19 01:59:59;;;;;;;1999.90;999.90;;;-0.60;99.90;;;;;;5030871;28;20045;-77
2024/01/19 02:02:25;;;;;;;1999.90;999.90;;;-0.60;99.90;;;;;;5034234;28;20033;-78
2024/01/19 02:04:51;;;;;;;1999.90;999.90;;;0.10;99.90;;;;;;5017516;28;20091;-78
2024/01/19 02:07:16;;;;;;;1999.90;999.90;;;-0.70;99.90;;;;;;5017671;28;20045;-78
2024/01/19 02:09:42;;;;;;;1999.90;999.90;;;-0.70;99.90;;;;;;5033522;28;20044;-77
2024/01/19 02:12:08;;;;;;;1999.90;999.90;;;-0.80;99.90;;;;;;5033871;28;20058;-78
2024/01/19 02:14:34;;;;;;;1999.90;999.90;;;-0.80;99.90;;;;;;5033842;28;20445;-79
2024/01/19 02:17:03;;;;;;;1999.90;999.90;;;-0.90;99.90;;;;;;5017537;28;20124;-78
2024/01/19 02:19:28;;;;;;;1999.90;999.90;;;-0.90;99.90;;;;;;5033760;28;20125;-78
2024/01/19 02:21:54;;;;;;;1999.90;999.90;;;-0.90;99.90;;;;;;5036198;28;20048;-78
2024/01/19 02:24:21;;;;;;;1999.90;999.90;;;-0.90;99.90;;;;;;5033741;28;20597;-77
2024/01/19 02:26:47;;;;;;;1999.90;999.90;;;-0.90;99.90;;;;;;5017172;28;20030;-77
2024/01/19 02:29:12;;;;;;;1999.90;999.90;;;-0.80;99.90;;;;;;5017022;28;20046;-78
2024/01/19 02:31:39;;;;;;;1999.90;999.90;;;-0.80;99.90;;;;;;5017616;28;20040;-78
2024/01/19 02:34:04;;;;;;;1999.90;999.90;;;-0.70;99.90;;;;;;5017295;28;20030;-78
2024/01/19 02:36:31;;;;;;;1999.90;999.90;;;-0.50;99.90;;;;;;5033492;28;20113;-78
2024/01/19 02:38:57;;;;;;;1999.90;999.90;;;-0.40;99.90;;;;;;5033932;28;20441;-79
2024/01/19 02:41:22;;;;;;;1999.90;999.90;;;-0.30;99.90;;;;;;5021857;28;20049;-78
2024/01/19 02:43:48;;;;;;;1999.90;999.90;;;-0.10;99.90;;;;;;5034836;28;20033;-78
2024/01/19 02:46:15;;;;;;;1999.90;999.90;;;-0.10;99.90;;;;;;5019195;28;20511;-79
2024/01/19 02:48:41;;;;;;;1999.90;999.90;;;0.00;99.90;;;;;;5035217;28;20092;-79
2024/01/19 02:51:06;;;;;;;1999.90;999.90;;;0.00;99.90;;;;;;5018744;28;20087;-79
2024/01/19 02:53:32;;;;;;;1999.90;999.90;;;0.10;99.90;;;;;;5035199;28;20038;-79
2024/01/19 02:55:59;;;;;;;1999.90;999.90;;;0.00;99.90;;;;;;5035316;28;20052;-78
2024/01/19 02:58:25;;;;;;;1999.90;999.90;;;0.10;99.90;;;;;;5030945;28;20425;-78
2024/01/19 03:00:51;;;;;;;1999.90;999.90;;;0.00;99.90;;;;;;5035821;28;20044;-79
2024/01/19 03:03:16;;;;;;;1999.90;999.90;;;0.00;99.90;;;;;;5035981;28;20037;-78
2024/01/19 03:05:42;;;;;;;1999.90;999.90;;;-0.10;99.90;;;;;;5035202;28;20113;-79
2024/01/19 03:08:10;;;;;;;1999.90;999.90;;;-0.20;99.90;;;;;;5037555;28;20037;-80
2024/01/19 03:10:36;;;;;;;1999.90;999.90;;;-0.30;99.90;;;;;;5018654;28;20106;-78
2024/01/19 03:13:01;;;;;;;1999.90;999.90;;;-0.40;99.90;;;;;;5020039;28;20611;-79
2024/01/19 03:15:27;;;;;;;1999.90;999.90;;;-0.50;99.90;;;;;;5035335;28;20037;-79
2024/01/19 03:17:52;;;;;;;1999.90;999.90;;;-0.60;99.90;;;;;;5035145;28;20037;-79
2024/01/19 03:20:18;;;;;;;1999.90;999.90;;;-0.60;99.90;;;;;;5018874;28;20041;-79
2024/01/19 03:22:44;;;;;;;1999.90;999.90;;;-0.60;99.90;;;;;;5019034;28;20037;-79
2024/01/19 03:25:10;;;;;;;1999.90;999.90;;;-0.60;99.90;;;;;;5018997;28;20065;-79
2024/01/19 03:27:35;;;;;;;1999.90;999.90;;;-0.60;99.90;;;;;;5041127;28;20033;-79
2024/01/19 03:30:01;;;;;;;1999.90;999.90;;;-0.70;99.90;;;;;;5035161;28;20493;-79
2024/01/19 03:32:26;;;;;;;1999.90;999.90;;;-0.70;99.90;;;;;;5018679;28;20045;-79
2024/01/19 03:34:53;;;;;;;1999.90;999.90;;;-0.60;99.90;;;;;;5035155;28;20044;-79
2024/01/19 03:37:18;;;;;;;1999.90;999.90;;;-0.70;99.90;;;;;;5034282;28;20045;-79
2024/01/19 03:39:44;;;;;;;1999.90;999.90;;;-0.60;99.90;;;;;;5018453;28;20037;-78
2024/01/19 03:42:10;;;;;;;1999.90;999.90;;;-0.60;99.90;;;;;;5018519;28;20045;-79
2024/01/19 03:44:35;;;;;;;1999.90;999.90;;;-0.40;99.90;;;;;;5018789;28;20044;-78
2024/01/19 03:47:01;;;;;;;1999.90;999.90;;;-0.30;99.90;;;;;;5035092;28;20502;-78
2024/01/19 03:49:27;;;;;;;1999.90;999.90;;;0.00;99.90;;;;;;5018734;28;20038;-78
2024/01/19 03:51:58;;;;;;;1999.90;999.90;;;0.60;99.90;;;;;;5035051;28;20041;-78
2024/01/19 03:54:23;;;;;;;1999.90;999.90;;;-0.10;99.90;;;;;;5035054;28;20261;-79
2024/01/19 03:56:49;;;;;;;1999.90;999.90;;;0.20;99.90;;;;;;5017872;28;20092;-79
2024/01/19 03:59:14;;;;;;;1999.90;999.90;;;0.30;99.90;;;;;;5018447;28;20103;-78
2024/01/19 04:01:40;;;;;;;1999.90;999.90;;;0.20;99.90;;;;;;5018421;28;20449;-79
2024/01/19 04:04:05;;;;;;;1999.90;999.90;;;0.30;99.90;;;;;;5042607;28;20084;-78
2024/01/19 04:06:31;;;;;;;1999.90;999.90;;;0.70;99.90;;;;;;5033954;28;20052;-78
2024/01/19 04:08:57;;;;;;;1999.90;999.90;;;0.30;99.90;;;;;;5017784;28;20033;-79
2024/01/19 04:11:22;;;;;;;1999.90;999.90;;;0.30;99.90;;;;;;5017582;28;20076;-79
2024/01/19 04:13:48;;;;;;;1999.90;999.90;;;0.20;99.90;;;;;;5033802;28;20056;-78
2024/01/19 04:16:13;;;;;;;1999.90;999.90;;;0.10;99.90;;;;;;5033228;28;20037;-79
2024/01/19 04:18:40;;;;;;;1999.90;999.90;;;0.00;99.90;;;;;;5019228;28;22609;-78
2024/01/19 04:21:06;;;;;;;1999.90;999.90;;;-0.10;99.90;;;;;;5033112;28;20033;-78
2024/01/19 04:23:32;;;;;;;1999.90;999.90;;;-0.20;99.90;;;;;;5032796;28;20421;-78
2024/01/19 04:25:57;;;;;;;1999.90;999.90;;;-0.30;99.90;;;;;;5017437;28;20048;-78
2024/01/19 04:28:23;;;;;;;1999.90;999.90;;;-0.40;99.90;;;;;;5016567;28;20044;-78
2024/01/19 04:30:48;;;;;;;1999.90;999.90;;;-0.40;99.90;;;;;;5032940;28;20440;-78
2024/01/19 04:33:14;;;;;;;1999.90;999.90;;;-0.50;99.90;;;;;;5032564;28;20037;-79
2024/01/19 04:35:39;;;;;;;1999.90;999.90;;;-0.50;99.90;;;;;;5012148;28;20459;-78
2024/01/19 04:38:05;;;;;;;1999.90;999.90;;;-0.60;99.90;;;;;;5032633;28;20034;-78
2024/01/19 04:40:31;;;;;;;1999.90;999.90;;;-0.70;99.90;;;;;;5016462;28;20037;-79
2024/01/19 04:42:57;;;;;;;1999.90;999.90;;;-0.70;99.90;;;;;;5033156;28;20098;-79
2024/01/19 04:45:23;;;;;;;1999.90;999.90;;;-0.80;99.90;;;;;;5033062;28;20033;-78
2024/01/19 04:47:48;;;;;;;1999.90;999.90;;;-0.80;99.90;;;;;;5035808;28;20033;-78
2024/01/19 04:50:14;;;;;;;1999.90;999.90;;;-0.90;99.90;;;;;;5032772;28;20045;-78
2024/01/19 04:52:40;;;;;;;1999.90;999.90;;;-0.90;99.90;;;;;;5016526;28;20144;-78
2024/01/19 04:55:05;;;;;;;1999.90;999.90;;;-1.00;99.90;;;;;;5015949;28;20029;-78
2024/01/19 04:57:31;;;;;;;1999.90;999.90;;;-1.00;99.90;;;;;;5032568;28;20037;-77
2024/01/19 04:59:57;;;;;;;1999.90;999.90;;;-1.10;99.90;;;;;;5032798;28;20095;-78
2024/01/19 05:02:23;;;;;;;1999.90;999.90;;;-1.10;99.90;;;;;;5017187;28;20048;-78
2024/01/19 05:04:48;;;;;;;1999.90;999.90;;;-1.10;99.90;;;;;;5016131;28;20087;-78
2024/01/19 05:07:14;;;;;;;1999.90;999.90;;;-1.20;99.90;;;;;;5016783;28;20033;-78
2024/01/19 05:09:39;;;;;;;1999.90;999.90;;;-1.20;99.90;;;;;;5015623;28;20392;-79
2024/01/19 05:12:06;;;;;;;1999.90;999.90;;;-1.30;99.90;;;;;;5032600;28;20513;-79
2024/01/19 05:14:31;;;;;;;1999.90;999.90;;;-1.30;99.90;;;;;;5016531;28;20064;-78
2024/01/19 05:16:57;;;;;;;1999.90;999.90;;;-1.30;99.90;;;;;;5012055;28;20483;-79
2024/01/19 05:19:22;;;;;;;1999.90;999.90;;;-1.40;99.90;;;;;;5017597;28;20047;-80
2024/01/19 05:21:48;;;;;;;1999.90;999.90;;;-1.40;99.90;;;;;;5016938;28;20549;-78
2024/01/19 05:24:14;;;;;;;1999.90;999.90;;;-1.40;99.90;;;;;;5033135;28;20041;-79
2024/01/19 05:26:39;;;;;;;1999.90;999.90;;;-1.50;99.90;;;;;;5018085;28;20067;-79
2024/01/19 05:29:05;;;;;;;1999.90;999.90;;;0.00;99.90;;;;;;5018162;28;20047;-79
2024/01/19 05:31:31;;;;;;;1999.90;999.90;;;-1.60;99.90;;;;;;5017317;28;20083;-79
2024/01/19 05:33:57;;;;;;;1999.90;999.90;;;-1.50;99.90;;;;;;5018362;28;20509;-79
2024/01/19 05:36:23;;;;;;;1999.90;999.90;;;-1.60;99.90;;;;;;5037797;28;20425;-79
2024/01/19 05:38:49;;;;;;;1999.90;999.90;;;-1.60;99.90;;;;;;5021884;28;20048;-79
2024/01/19 05:41:21;;;;;;;1999.90;999.90;;;-1.40;99.90;;;;;;5020052;28;20041;-78
2024/01/19 05:43:47;;;;;;;1999.90;999.90;;;-1.50;99.90;;;;;;5037129;28;20129;-80
2024/01/19 05:46:13;;;;;;;1999.90;999.90;;;-1.40;99.90;;;;;;5025188;28;20073;-79
2024/01/19 05:48:39;;;;;;;1999.90;999.90;;;-1.30;99.90;;;;;;5022208;28;20033;-80
2024/01/19 05:51:11;;;;;;;1999.90;999.90;;;0.00;99.90;;;;;;5038840;28;20110;-77
2024/01/19 05:53:36;;;;;;;1999.90;999.90;;;-1.10;99.90;;;;;;5019913;28;20042;-78
2024/01/19 05:56:02;;;;;;;1999.90;999.90;;;-1.00;99.90;;;;;;5040527;28;20136;-78
2024/01/19 05:58:28;;;;;;;1999.90;999.90;;;-1.00;99.90;;;;;;5023258;28;20045;-78
2024/01/19 06:00:53;;;;;;;1999.90;999.90;;;-1.10;99.90;;;;;;5041811;28;20169;-79
2024/01/19 06:03:19;;;;;;;1999.90;999.90;;;-1.10;99.90;;;;;;5023640;28;20049;-79
2024/01/19 06:05:45;;;;;;;1999.90;999.90;;;-1.20;99.90;;;;;;5025197;28;20033;-80
2024/01/19 06:08:10;;;;;;;1999.90;999.90;;;-1.30;99.90;;;;;;5041338;28;20072;-79
2024/01/19 06:10:36;;;;;;;1999.90;999.90;;;-0.60;99.90;;;;;;5039861;28;20053;-78
2024/01/19 06:13:02;;;;;;;1999.90;999.90;;;-1.40;99.90;;;;;;5026732;28;20037;-78
2024/01/19 06:15:27;;;;;;;1999.90;999.90;;;-1.50;99.90;;;;;;5019640;28;20029;-78
2024/01/19 06:17:53;;;;;;;1999.90;999.90;;;-1.50;99.90;;;;;;5023881;28;20041;-78
2024/01/19 06:20:18;;;;;;;1999.90;999.90;;;-1.50;99.90;;;;;;5040944;28;20056;-79
2024/01/19 06:22:44;;;;;;;1999.90;999.90;;;-1.50;99.90;;;;;;5043228;28;20087;-79
2024/01/19 06:25:10;;;;;;;1999.90;999.90;;;-0.30;99.90;;;;;;5023653;28;20037;-79
2024/01/19 06:27:35;;;;;;;1999.90;999.90;;;-1.30;99.90;;;;;;5023364;28;20056;-79
2024/01/19 06:30:02;;;;;;;1999.90;999.90;;;-1.20;99.90;;;;;;5041603;28;20101;-79
2024/01/19 06:32:29;;;;;;;1999.90;999.90;;;-1.00;99.90;;;;;;5026230;28;20041;-80
2024/01/19 06:34:55;;;;;;;1999.90;999.90;;;-0.90;99.90;;;;;;5026795;28;20148;-80
2024/01/19 06:37:21;;;;;;;1999.90;999.90;;;-0.10;99.90;;;;;;5026875;28;20525;-79
2024/01/19 06:39:47;;;;;;;1999.90;999.90;;;-0.70;99.90;;;;;;5027279;28;20494;-80
2024/01/19 06:42:13;;;;;;;1999.90;999.90;;;-0.70;99.90;;;;;;5044986;28;20545;-80
2024/01/19 06:44:43;;;;;;;1999.90;999.90;;;-0.60;99.90;;;;;;5044214;28;20049;-80
2024/01/19 06:47:08;;;;;;;1999.90;999.90;;;-0.60;99.90;;;;;;5022409;28;20045;-80
2024/01/19 06:49:36;;;;;;;1999.90;999.90;;;-0.70;99.90;;;;;;5027139;28;20059;-79
2024/01/19 06:52:04;;;;;;;1999.90;999.90;;;-0.70;99.90;;;;;;5028546;28;20050;-80
2024/01/19 06:54:31;;;;;;;1999.90;999.90;;;-0.90;99.90;;;;;;5048987;28;20034;-79
2024/01/19 06:56:56;;;;;;;1999.90;999.90;;;0.50;99.90;;;;;;5025947;28;20033;-79
2024/01/19 06:59:22;;;;;;;1999.90;999.90;;;-1.10;99.90;;;;;;5025753;28;20033;-80
2024/01/19 07:01:48;;;;;;;1999.90;999.90;;;0.20;99.90;;;;;;5043532;28;20044;-81
2024/01/19 07:04:13;;;;;;;1999.90;999.90;;;-1.30;99.90;;;;;;5042425;28;20494;-82
2024/01/19 07:06:40;;;;;;;1999.90;999.90;;;-1.30;99.90;;;;;;5030653;28;20079;-81
2024/01/19 07:09:07;;;;;;;1999.90;999.90;;;-1.40;99.90;;;;;;5029248;28;20072;-81
2024/01/19 07:11:32;;;;;;;1999.90;999.90;;;-1.40;99.90;;;;;;5029621;28;20117;-80
2024/01/19 07:13:58;;;;;;;1999.90;999.90;;;-1.40;99.90;;;;;;5027840;28;20034;-81
2024/01/19 07:16:24;;;;;;;1999.90;999.90;;;-1.50;99.90;;;;;;5027681;28;20053;-81
2024/01/19 07:18:49;;;;;;;1999.90;999.90;;;-0.30;99.90;;;;;;5028398;28;20044;-81
2024/01/19 07:21:16;;;;;;;1999.90;999.90;;;-0.10;99.90;;;;;;5028795;28;20112;-81
2024/01/19 07:23:42;;;;;;;1999.90;999.90;;;-1.60;99.90;;;;;;5027795;28;20443;-83
2024/01/19 07:26:07;;;;;;;1999.90;999.90;;;-1.60;99.90;;;;;;5028833;28;20076;-82
2024/01/19 07:28:33;;;;;;;1999.90;999.90;;;-1.60;99.90;;;;;;5029309;28;20059;-81
2024/01/19 07:30:58;;;;;;;1999.90;999.90;;;-1.60;99.90;;;;;;5028774;28;20041;-81
2024/01/19 07:33:25;;;;;;;1999.90;999.90;;;-1.60;99.90;;;;;;5027033;28;20104;-83
2024/01/19 07:35:51;;;;;;;1999.90;999.90;;;-1.60;99.90;;;;;;5030939;28;20517;-82
2024/01/19 07:38:17;;;;;;;1999.90;999.90;;;-1.00;99.90;;;;;;5025712;28;20052;-82
2024/01/19 07:40:46;;;;;;;1999.90;999.90;;;-1.50;99.90;;;;;;5028384;28;20052;-82
2024/01/19 07:43:11;;;;;;;1999.90;999.90;;;-1.50;99.90;;;;;;5042726;28;20045;-81
2024/01/19 07:45:37;;;;;;;1999.90;999.90;;;-1.30;99.90;;;;;;5027201;28;20053;-81
2024/01/19 07:48:03;;;;;;;1999.90;999.90;;;-2.10;99.90;;;;;;5027598;28;20240;-81
2024/01/19 07:50:29;;;;;;;1999.90;999.90;;;-1.20;99.90;;;;;;5028079;28;20041;-80
2024/01/19 07:52:54;;;;;;;1999.90;999.90;;;-1.00;99.90;;;;;;5027943;28;20040;-80
2024/01/19 07:55:20;;;;;;;1999.90;999.90;;;-1.00;99.90;;;;;;5043700;28;20037;-79
2024/01/19 07:57:46;;;;;;;1999.90;999.90;;;-0.90;99.90;;;;;;5042879;28;20037;-83
2024/01/19 08:00:12;;;;;;;1999.90;999.90;;;0.60;99.90;;;;;;5026449;28;20076;-80
2024/01/19 08:02:40;;;;;;;1999.90;999.90;;;-0.80;99.90;;;;;;5022575;28;20076;-81
2024/01/19 08:05:06;;;;;;;1999.90;999.90;;;-0.70;99.90;;;;;;5027648;28;20128;-81
2024/01/19 08:07:32;;;;;;;1999.90;999.90;;;-0.20;99.90;;;;;;5029669;28;20041;-81
2024/01/19 08:09:58;;;;;;;1999.90;999.90;;;0.00;99.90;;;;;;5046100;28;20066;-82
2024/01/19 08:12:23;;;;;;;1999.90;999.90;;;-0.70;99.90;;;;;;5027706;28;20509;-82
2024/01/19 08:14:52;;;;;;;1999.90;999.90;;;-0.60;99.90;;;;;;5025931;28;20069;-81
2024/01/19 08:17:17;;;;;;;1999.90;999.90;;;-0.50;99.90;;;;;;5034891;28;20171;-78
2024/01/19 08:19:43;;;;;;;1999.90;999.90;;;0.00;99.90;;;;;;5036335;28;20052;-78
2024/01/19 08:22:08;;;;;;;1999.90;999.90;;;-0.40;99.90;;;;;;5016593;28;20037;-76
2024/01/19 08:24:37;;;;;;;1999.90;999.90;;;-0.90;99.90;;;;;;5034239;28;20064;-78
2024/01/19 08:27:04;;;;;;;1999.90;999.90;;;-0.40;99.90;;;;;;5029897;28;20490;-79
2024/01/19 08:29:32;;;;;;;1999.90;999.90;;;-0.40;99.90;;;;;;5035460;28;20409;-78
2024/01/19 08:31:58;;;;;;;1999.90;999.90;;;-0.40;99.90;;;;;;5018608;28;20040;-80
2024/01/19 08:34:24;;;;;;;1999.90;999.90;;;-0.50;99.90;;;;;;5034738;28;20045;-78
2024/01/19 08:36:50;;;;;;;1999.90;999.90;;;-0.50;99.90;;;;;;5019394;28;20036;-82
2024/01/19 08:39:15;;;;;;;1999.90;999.90;;;-0.50;99.90;;;;;;5026518;28;20033;-83
2024/01/19 08:41:44;;;;;;;1999.90;999.90;;;-0.50;99.90;;;;;;5035965;28;20414;-83
2024/01/19 08:44:10;;;;;;;1999.90;999.90;;;-0.50;99.90;;;;;;5025309;28;20042;-84
2024/01/19 08:46:43;;;;;;;1999.90;999.90;;;-0.60;99.90;;;;;;5025519;28;20033;-83
2024/01/19 08:49:10;;;;;;;1999.90;999.90;;;-0.50;99.90;;;;;;5021525;28;20049;-83
2024/01/19 08:51:36;;;;;;;1999.90;999.90;;;-0.50;99.90;;;;;;5024155;28;20029;-82
2024/01/19 08:54:03;;;;;;;1999.90;999.90;;;0.30;99.90;;;;;;5023318;28;20049;-84
2024/01/19 08:56:30;;;;;;;1999.90;999.90;;;-0.50;99.90;;;;;;5034242;28;20406;-84
2024/01/19 08:58:57;;;;;;;1999.90;999.90;;;1.10;99.90;;;;;;5025023;28;20530;-82
2024/01/19 09:01:23;;;;;;;1999.90;999.90;;;-0.50;99.90;;;;;;5025465;28;20041;-84
2024/01/19 09:03:49;;;;;;;1999.90;999.90;;;0.90;99.90;;;;;;5025157;28;20086;-83
2024/01/19 09:06:15;;;;;;;1999.90;999.90;;;-0.40;99.90;;;;;;5026667;28;20041;-83
2024/01/19 09:08:44;;;;;;;1999.90;999.90;;;-0.40;99.90;;;;;;5042311;28;20076;-82
2024/01/19 09:11:10;;;;;;;1999.90;999.90;;;0.20;99.90;;;;;;5020534;28;20065;-82
2024/01/19 09:13:37;;;;;;;1999.90;999.90;;;-0.40;99.90;;;;;;5025599;28;20042;-83
2024/01/19 09:16:08;;;;;;;1999.90;999.90;;;-0.40;99.90;;;;;;5042426;28;20183;-83
2024/01/19 09:18:38;;;;;;;1999.90;999.90;;;-0.40;99.90;;;;;;5025428;28;20034;-83
2024/01/19 09:21:04;;;;;;;1999.90;999.90;;;0.80;99.90;;;;;;5044707;28;20042;-83
2024/01/19 09:23:30;;;;;;;1999.90;999.90;;;-0.40;99.90;;;;;;5026906;28;20442;-83
2024/01/19 09:25:56;;;;;;;1999.90;999.90;;;1.10;99.90;;;;;;5039026;28;20048;-83
2024/01/19 09:28:22;;;;;;;1999.90;999.90;;;0.00;99.90;;;;;;5023175;28;20563;-82
2024/01/19 09:30:47;;;;;;;1999.90;999.90;;;1.00;99.90;;;;;;5026204;28;20037;-83
2024/01/19 09:33:14;;;;;;;1999.90;999.90;;;-0.30;99.90;;;;;;5025596;28;20041;-83
2024/01/19 09:35:40;;;;;;;1999.90;999.90;;;-0.10;99.90;;;;;;5025401;28;20112;-83
2024/01/19 09:38:06;;;;;;;1999.90;999.90;;;-0.20;99.90;;;;;;5044106;28;20061;-83
2024/01/19 09:40:32;;;;;;;1999.90;999.90;;;-0.30;99.90;;;;;;5034470;28;20363;-83
2024/01/19 09:42:59;;;;;;;1999.90;999.90;;;-0.20;99.90;;;;;;5019740;28;20613;-80
2024/01/19 09:45:38;;;;;;;1999.90;999.90;;;1.20;99.90;;;;;;5019480;28;20045;-78
2024/01/19 09:48:22;;;;;;;1999.90;999.90;;;-0.20;99.90;;;;;;5029761;28;20486;-79
2024/01/19 09:50:51;;;;;;;1999.90;999.90;;;-0.10;99.90;;;;;;5020590;28;20033;-82
2024/01/19 09:53:36;;;;;;;1999.90;999.90;;;-0.10;99.90;;;;;;5021895;28;20044;-83
2024/01/19 09:56:02;;;;;;;1999.90;999.90;;;-0.10;99.90;;;;;;5023741;28;20037;-81
2024/01/19 09:58:28;;;;;;;1999.90;999.90;;;-0.10;99.90;;;;;;5018081;28;20076;-82
2024/01/19 10:00:54;;;;;;;1999.90;999.90;;;0.00;99.90;;;;;;5034200;28;20055;-82
2024/01/19 10:03:22;;;;;;;1999.90;999.90;;;0.00;99.90;;;;;;5023037;28;20037;-82
2024/01/19 10:05:51;;;;;;;1999.90;999.90;;;0.00;99.90;;;;;;5022648;28;20556;-82
2024/01/19 10:08:17;;;;;;;1999.90;999.90;;;0.10;99.90;;;;;;5024752;28;20033;-83
2024/01/19 10:10:43;;;;;;;1999.90;999.90;;;0.10;99.90;;;;;;5038682;28;20204;-81
2024/01/19 10:13:09;;;;;;;1999.90;999.90;;;0.20;99.90;;;;;;5049449;28;20055;-82
2024/01/19 10:15:35;;;;;;;1999.90;999.90;;;1.80;99.90;;;;;;5025111;28;20421;-81
2024/01/19 10:18:03;;;;;;;1999.90;999.90;;;1.10;99.90;;;;;;5020852;28;20076;-82
2024/01/19 10:20:30;;;;;;;1999.90;999.90;;;0.20;99.90;;;;;;5038270;28;20076;-84
2024/01/19 10:22:56;;;;;;;1999.90;999.90;;;0.20;99.90;;;;;;5025033;28;20100;-82
2024/01/19 10:25:22;;;;;;;1999.90;999.90;;;0.30;99.90;;;;;;5037976;28;20076;-81
2024/01/19 10:27:51;;;;;;;1999.90;999.90;;;0.30;99.90;;;;;;5023382;28;20041;-81
2024/01/19 10:30:30;;;;;;;1999.90;999.90;;;0.40;99.90;;;;;;5043933;28;20041;-86
2024/01/19 10:33:05;;;;;;;1999.90;999.90;;;0.40;99.90;;;;;;5028228;28;20073;-85
2024/01/19 10:35:30;;;;;;;1999.90;999.90;;;0.50;99.90;;;;;;5028095;28;20040;-85
2024/01/19 10:38:07;;;;;;;1999.90;999.90;;;0.50;99.90;;;;;;5029995;28;20045;-85
2024/01/19 10:40:34;;;;;;;1999.90;999.90;;;1.90;99.90;;;;;;5045176;28;20579;-84
2024/01/19 10:43:00;;;;;;;1999.90;999.90;;;0.60;99.90;;;;;;5029314;28;20037;-86
2024/01/19 10:45:31;;;;;;;1999.90;999.90;;;0.70;99.90;;;;;;5028575;28;20057;-84
2024/01/19 10:48:03;;;;;;;1999.90;999.90;;;1.20;99.90;;;;;;5029606;28;20068;-86
2024/01/19 10:50:30;;;;;;;1999.90;999.90;;;1.50;99.90;;;;;;5047462;28;20042;-83
2024/01/19 10:53:00;;;;;;;1999.90;999.90;;;0.70;99.90;;;;;;5035995;28;20498;-82
2024/01/19 10:55:26;;;;;;;1999.90;999.90;;;0.80;99.90;;;;;;5041982;28;20552;-80
2024/01/19 10:57:53;;;;;;;1999.90;999.90;;;1.50;99.90;;;;;;5039329;28;20067;-81
2024/01/19 11:00:27;;;;;;;1999.90;999.90;;;1.50;99.90;;;;;;5022862;28;20124;-80
2024/01/19 11:02:55;;;;;;;1999.90;999.90;;;0.30;99.90;;;;;;5027053;28;20085;-81
2024/01/19 11:05:21;;;;;;;1999.90;999.90;;;0.90;99.90;;;;;;5022660;28;20050;-81
2024/01/19 11:07:58;;;;;;;1999.90;999.90;;;2.10;99.90;;;;;;5021727;28;20105;-80
2024/01/19 11:10:30;;;;;;;1999.90;999.90;;;1.50;99.90;;;;;;5021954;28;20540;-81
2024/01/19 11:13:00;;;;;;;1999.90;999.90;;;1.00;99.90;;;;;;5021863;28;20048;-81
2024/01/19 11:15:46;;;;;;;1999.90;999.90;;;1.00;99.90;;;;;;5021861;28;20095;-80
2024/01/19 11:18:11;;;;;;;1999.90;999.90;;;1.10;99.90;;;;;;5025170;28;20092;-81
2024/01/19 11:20:37;;;;;;;1999.90;999.90;;;1.10;99.90;;;;;;5039899;28;20041;-80
2024/01/19 11:23:04;;;;;;;1999.90;999.90;;;1.20;99.90;;;;;;5038239;28;20026;-80
2024/01/19 11:25:55;;;;;;;1999.90;999.90;;;1.20;99.90;;;;;;5022577;28;20517;-81
2024/01/19 11:28:52;;;;;;;1999.90;999.90;;;1.30;99.90;;;;;;5021371;28;20119;-81
2024/01/19 11:31:23;;;;;;;1999.90;999.90;;;1.30;99.90;;;;;;5018475;28;20069;-80
2024/01/19 11:33:52;;;;;;;1999.90;999.90;;;1.30;99.90;;;;;;5020522;28;20514;-80
2024/01/19 11:36:38;;;;;;;1999.90;999.90;;;1.40;99.90;;;;;;5022114;28;20052;-81
2024/01/19 11:39:05;;;;;;;1999.90;999.90;;;1.40;99.90;;;;;;5021425;28;20081;-80
2024/01/19 11:41:34;;;;;;;1999.90;999.90;;;1.40;99.90;;;;;;5037569;28;20038;-81
2024/01/19 11:44:01;;;;;;;1999.90;999.90;;;1.60;99.90;;;;;;5021362;28;20181;-81
2024/01/19 11:46:46;;;;;;;1999.90;999.90;;;1.50;99.90;;;;;;5035324;28;20398;-80
2024/01/19 11:49:30;;;;;;;1999.90;999.90;;;1.50;99.90;;;;;;5018837;28;20030;-80
2024/01/19 11:52:00;;;;;;;1999.90;999.90;;;1.50;99.90;;;;;;5016816;28;20059;-81
2024/01/19 11:54:32;;;;;;;1999.90;999.90;;;1.60;99.90;;;;;;5018858;28;20033;-81
2024/01/19 11:57:17;;;;;;;1999.90;999.90;;;1.60;99.90;;;;;;5018980;28;20035;-81
2024/01/19 11:59:43;;;;;;;1999.90;999.90;;;1.60;99.90;;;;;;5018983;28;20052;-80
2024/01/19 12:02:20;;;;;;;1999.90;999.90;;;1.70;99.90;;;;;;5035752;28;20521;-80